Lake Fork, ID (83635)

6:45 AM MDT on March 26, 2017 (GMT -0600)
Spring Mountain Ranch | | Change Station
Active Advisory: Flood Warning

Elev 5097 ft 44.91 °N, 116.08 °W | Updated 15 seconds ago

Mostly Cloudy
Mostly Cloudy
24.8 °F
Feels Like 25 °F
N
0.0
Wind Variable Wind from SSE

Today
High -- | Low -- °F
--% Chance of Precip.
Yesterday
High -- | Low -- °F
Precip. -- in
Pressure 29.99 in
Visibility 10.0 miles
Clouds Few 4800 ft
Overcast 7000 ft
Windchill 25 °F
Dew Point 24 °F
Humidity 98%
Rainfall 0.00 in
Snow Depth Not available.
7:35 AM 8:04 PM
Waning Crescent, 3% visible
METAR KMYL 261151Z AUTO 04003KT 10SM FEW048 OVC070 M03/M05 A2995 RMK AO2 SLP156 T10281050 11017 21039 56007 $
Pressure 29.99 in
Visibility 10.0 miles
Clouds Few 4800 ft
Overcast 7000 ft
Windchill 25 °F
Dew Point 24 °F
Humidity 98%
Rainfall 0.00 in
Snow Depth Not available.
7:35 AM 8:04 PM
Waning Crescent, 3% visible
METAR KMYL 261151Z AUTO 04003KT 10SM FEW048 OVC070 M03/M05 A2995 RMK AO2 SLP156 T10281050 11017 21039 56007 $

Get Your Daily Forecast Email!

Thanks for signing up!

Be on the lookout for a verification email in your inbox.

You'll start receiving severe weather alerts in your inbox..

×

10-Day Weather Forecast

Almanac

Astronomy

Mar. 26, 2017 Rise Set
Actual Time
Civil Twilight
Nautical Twilight
Astronomical Twilight
Moon
Length of Visible Light
Length of Day
Tomorrow will be .
, % of the Moon is Illuminated

Today's Extremes

State Highs State Lows

Community

WunderPhotos

Upload Photos

1,962,540 photos uploaded!

WunderBlog® & News

Nearby

Air Quality

  Air Quality AQ Index Pollutant
Not available.

Snow Depth

Station Depth Elevation

Earthquake Activity

City Distance Mag. Time & Date
Minimum magnitude displayed is 2.5.

Earthquake Activity

City Distance Mag. Time & Date
Minimum magnitude displayed is 2.5.

Coastal Water Temperatures

Place Temperature

Stations

Nearby Weather Stations

Station Location Temp. Windchill Dew Point Humidity Wind Precip. Elev Updated Type
                   

Watches & Warnings

Flood Warning
Issued: 1:59 PM MDT Mar. 25, 2017 – National Weather Service

The Flood Warning continues for
the Snake River near Weiser.
* Until Tuesday... or until the warning is cancelled.
* At 1:00 PM Saturday the stage was 12.3 feet.
* Minor flooding is occurring and minor flooding is forecast.
* Flood stage is 12.0 feet.
* Forecast... the river will crest near 12.4 feet late today. The
river will fall below flood stage Tuesday evening.
* Impact... at 12.0 feet... flooding of agricultural land near the
river is likely in Malheur County, Oregon, and in Washington
County, Idaho. Mortimer Road in Weiser will be flooded.


Lat... Lon 4431 11703 4417 11686 4405 11688 4406 11705
      4427 11714